sensor_id;sensor_type;location;lat;lon;timestamp;P1;durP1;ratioP1;P2;durP2;ratioP2
4422;SDS011;2224;49.814;8.650;2022-09-16T00:00:31;5.23;;;2.87;;
4422;SDS011;2224;49.814;8.650;2022-09-16T00:02:57;3.90;;;2.40;;
4422;SDS011;2224;49.814;8.650;2022-09-16T00:05:22;3.70;;;3.00;;
4422;SDS011;2224;49.814;8.650;2022-09-16T00:07:48;4.20;;;2.60;;
4422;SDS011;2224;49.814;8.650;2022-09-16T00:10:14;5.37;;;2.83;;
4422;SDS011;2224;49.814;8.650;2022-09-16T00:12:39;5.00;;;2.83;;
4422;SDS011;2224;49.814;8.650;2022-09-16T00:15:05;5.43;;;2.73;;
4422;SDS011;2224;49.814;8.650;2022-09-16T00:17:31;5.03;;;2.93;;
4422;SDS011;2224;49.814;8.650;2022-09-16T00:19:56;3.43;;;2.63;;
4422;SDS011;2224;49.814;8.650;2022-09-16T00:22:22;4.10;;;2.93;;
4422;SDS011;2224;49.814;8.650;2022-09-16T00:24:48;4.10;;;3.20;;
4422;SDS011;2224;49.814;8.650;2022-09-16T00:27:13;4.93;;;2.50;;
4422;SDS011;2224;49.814;8.650;2022-09-16T00:29:39;8.33;;;2.87;;
4422;SDS011;2224;49.814;8.650;2022-09-16T00:32:04;3.93;;;3.53;;
4422;SDS011;2224;49.814;8.650;2022-09-16T00:34:30;5.00;;;3.13;;
4422;SDS011;2224;49.814;8.650;2022-09-16T00:36:55;5.20;;;3.07;;
4422;SDS011;2224;49.814;8.650;2022-09-16T00:39:20;4.27;;;3.17;;
4422;SDS011;2224;49.814;8.650;2022-09-16T00:41:46;4.67;;;3.37;;
4422;SDS011;2224;49.814;8.650;2022-09-16T00:47:14;6.63;;;2.97;;
4422;SDS011;2224;49.814;8.650;2022-09-16T00:49:41;4.60;;;3.03;;
4422;SDS011;2224;49.814;8.650;2022-09-16T00:52:07;4.30;;;3.17;;
4422;SDS011;2224;49.814;8.650;2022-09-16T00:54:33;6.00;;;2.50;;
4422;SDS011;2224;49.814;8.650;2022-09-16T00:57:00;6.70;;;3.53;;
4422;SDS011;2224;49.814;8.650;2022-09-16T00:59:34;4.93;;;3.23;;
4422;SDS011;2224;49.814;8.650;2022-09-16T01:02:05;6.47;;;3.30;;
4422;SDS011;2224;49.814;8.650;2022-09-16T01:04:34;3.73;;;2.67;;
4422;SDS011;2224;49.814;8.650;2022-09-16T01:07:11;10.30;;;2.90;;
4422;SDS011;2224;49.814;8.650;2022-09-16T01:09:37;5.30;;;2.90;;
4422;SDS011;2224;49.814;8.650;2022-09-16T01:12:03;4.07;;;2.73;;
4422;SDS011;2224;49.814;8.650;2022-09-16T01:14:29;3.67;;;3.07;;
4422;SDS011;2224;49.814;8.650;2022-09-16T01:19:42;4.23;;;2.70;;
4422;SDS011;2224;49.814;8.650;2022-09-16T01:30:34;5.47;;;3.20;;
4422;SDS011;2224;49.814;8.650;2022-09-16T01:46:04;3.07;;;2.50;;
4422;SDS011;2224;49.814;8.650;2022-09-16T01:48:41;5.97;;;3.13;;
4422;SDS011;2224;49.814;8.650;2022-09-16T01:51:12;3.13;;;2.83;;
4422;SDS011;2224;49.814;8.650;2022-09-16T01:53:46;4.80;;;3.00;;
4422;SDS011;2224;49.814;8.650;2022-09-16T01:56:38;6.30;;;3.40;;
4422;SDS011;2224;49.814;8.650;2022-09-16T01:59:18;4.33;;;2.67;;
4422;SDS011;2224;49.814;8.650;2022-09-16T02:02:00;3.83;;;2.20;;
4422;SDS011;2224;49.814;8.650;2022-09-16T02:04:45;5.83;;;3.10;;
4422;SDS011;2224;49.814;8.650;2022-09-16T02:07:16;3.07;;;2.40;;
4422;SDS011;2224;49.814;8.650;2022-09-16T02:09:45;5.70;;;2.70;;
4422;SDS011;2224;49.814;8.650;2022-09-16T02:12:26;8.47;;;3.40;;
4422;SDS011;2224;49.814;8.650;2022-09-16T02:14:55;4.30;;;3.03;;
4422;SDS011;2224;49.814;8.650;2022-09-16T02:17:23;3.40;;;2.30;;
4422;SDS011;2224;49.814;8.650;2022-09-16T02:20:07;4.53;;;2.63;;
4422;SDS011;2224;49.814;8.650;2022-09-16T02:22:35;3.80;;;2.90;;
4422;SDS011;2224;49.814;8.650;2022-09-16T02:25:08;6.93;;;2.67;;
4422;SDS011;2224;49.814;8.650;2022-09-16T02:27:34;3.43;;;2.43;;
4422;SDS011;2224;49.814;8.650;2022-09-16T02:30:04;5.10;;;2.60;;
4422;SDS011;2224;49.814;8.650;2022-09-16T02:32:35;4.30;;;2.70;;
4422;SDS011;2224;49.814;8.650;2022-09-16T02:35:04;4.77;;;2.87;;
4422;SDS011;2224;49.814;8.650;2022-09-16T02:37:43;6.73;;;3.20;;
4422;SDS011;2224;49.814;8.650;2022-09-16T02:40:14;4.70;;;2.73;;
4422;SDS011;2224;49.814;8.650;2022-09-16T02:42:41;5.13;;;2.97;;
4422;SDS011;2224;49.814;8.650;2022-09-16T02:45:06;5.57;;;2.90;;
4422;SDS011;2224;49.814;8.650;2022-09-16T02:50:09;3.77;;;2.73;;
4422;SDS011;2224;49.814;8.650;2022-09-16T02:52:38;5.53;;;3.10;;
4422;SDS011;2224;49.814;8.650;2022-09-16T02:57:38;3.43;;;2.43;;
4422;SDS011;2224;49.814;8.650;2022-09-16T03:00:04;4.80;;;2.33;;
4422;SDS011;2224;49.814;8.650;2022-09-16T03:02:35;3.30;;;2.47;;
4422;SDS011;2224;49.814;8.650;2022-09-16T03:05:01;7.83;;;2.80;;
4422;SDS011;2224;49.814;8.650;2022-09-16T03:07:27;3.20;;;2.70;;
4422;SDS011;2224;49.814;8.650;2022-09-16T03:09:53;5.00;;;2.57;;
4422;SDS011;2224;49.814;8.650;2022-09-16T03:12:24;3.93;;;2.37;;
4422;SDS011;2224;49.814;8.650;2022-09-16T03:15:02;4.77;;;2.40;;
4422;SDS011;2224;49.814;8.650;2022-09-16T03:31:14;3.67;;;2.30;;
4422;SDS011;2224;49.814;8.650;2022-09-16T03:33:46;3.37;;;2.47;;
4422;SDS011;2224;49.814;8.650;2022-09-16T03:36:16;5.23;;;3.00;;
4422;SDS011;2224;49.814;8.650;2022-09-16T03:38:44;2.93;;;2.60;;
4422;SDS011;2224;49.814;8.650;2022-09-16T03:41:10;3.33;;;2.63;;
4422;SDS011;2224;49.814;8.650;2022-09-16T03:43:37;4.20;;;2.37;;
4422;SDS011;2224;49.814;8.650;2022-09-16T03:46:03;10.00;;;3.60;;
4422;SDS011;2224;49.814;8.650;2022-09-16T03:48:30;8.17;;;3.00;;
4422;SDS011;2224;49.814;8.650;2022-09-16T03:50:55;3.23;;;2.20;;
4422;SDS011;2224;49.814;8.650;2022-09-16T03:53:20;6.13;;;2.37;;
4422;SDS011;2224;49.814;8.650;2022-09-16T03:55:47;3.80;;;2.10;;
4422;SDS011;2224;49.814;8.650;2022-09-16T03:58:13;4.03;;;2.50;;
4422;SDS011;2224;49.814;8.650;2022-09-16T04:00:39;3.57;;;2.30;;
4422;SDS011;2224;49.814;8.650;2022-09-16T04:03:04;6.03;;;2.80;;
4422;SDS011;2224;49.814;8.650;2022-09-16T04:05:29;5.10;;;2.40;;
4422;SDS011;2224;49.814;8.650;2022-09-16T04:07:56;3.20;;;2.20;;
4422;SDS011;2224;49.814;8.650;2022-09-16T04:10:21;8.70;;;2.60;;
4422;SDS011;2224;49.814;8.650;2022-09-16T04:12:46;3.10;;;2.10;;
4422;SDS011;2224;49.814;8.650;2022-09-16T04:15:12;3.87;;;2.30;;
4422;SDS011;2224;49.814;8.650;2022-09-16T04:17:37;2.87;;;2.07;;
4422;SDS011;2224;49.814;8.650;2022-09-16T04:20:03;7.10;;;2.80;;
4422;SDS011;2224;49.814;8.650;2022-09-16T04:22:29;2.60;;;2.00;;
4422;SDS011;2224;49.814;8.650;2022-09-16T04:24:55;8.53;;;2.67;;
4422;SDS011;2224;49.814;8.650;2022-09-16T04:27:21;5.10;;;2.53;;
4422;SDS011;2224;49.814;8.650;2022-09-16T04:29:46;5.90;;;3.10;;
4422;SDS011;2224;49.814;8.650;2022-09-16T04:32:12;3.30;;;2.37;;
4422;SDS011;2224;49.814;8.650;2022-09-16T04:34:37;4.60;;;2.67;;
4422;SDS011;2224;49.814;8.650;2022-09-16T04:37:03;3.43;;;1.93;;
4422;SDS011;2224;49.814;8.650;2022-09-16T04:39:28;3.53;;;2.37;;
4422;SDS011;2224;49.814;8.650;2022-09-16T04:41:54;5.00;;;2.27;;
4422;SDS011;2224;49.814;8.650;2022-09-16T04:44:19;2.97;;;1.90;;
4422;SDS011;2224;49.814;8.650;2022-09-16T04:46:45;4.67;;;2.67;;
4422;SDS011;2224;49.814;8.650;2022-09-16T04:49:10;5.23;;;2.10;;
4422;SDS011;2224;49.814;8.650;2022-09-16T04:51:36;4.43;;;2.40;;
4422;SDS011;2224;49.814;8.650;2022-09-16T04:54:02;3.00;;;2.23;;
4422;SDS011;2224;49.814;8.650;2022-09-16T04:56:28;3.30;;;2.37;;
4422;SDS011;2224;49.814;8.650;2022-09-16T04:58:57;4.13;;;2.60;;
4422;SDS011;2224;49.814;8.650;2022-09-16T05:01:25;3.03;;;2.53;;
4422;SDS011;2224;49.814;8.650;2022-09-16T05:03:56;5.10;;;2.50;;
4422;SDS011;2224;49.814;8.650;2022-09-16T05:06:26;8.17;;;2.50;;
4422;SDS011;2224;49.814;8.650;2022-09-16T05:08:53;11.37;;;2.70;;
4422;SDS011;2224;49.814;8.650;2022-09-16T05:11:20;5.73;;;2.83;;
4422;SDS011;2224;49.814;8.650;2022-09-16T05:13:47;5.63;;;2.53;;
4422;SDS011;2224;49.814;8.650;2022-09-16T05:16:19;3.07;;;2.43;;
4422;SDS011;2224;49.814;8.650;2022-09-16T05:18:47;3.10;;;2.47;;
4422;SDS011;2224;49.814;8.650;2022-09-16T05:21:14;8.50;;;2.90;;
4422;SDS011;2224;49.814;8.650;2022-09-16T05:23:41;3.27;;;2.50;;
4422;SDS011;2224;49.814;8.650;2022-09-16T05:26:08;2.73;;;2.53;;
4422;SDS011;2224;49.814;8.650;2022-09-16T05:28:35;8.67;;;3.67;;
4422;SDS011;2224;49.814;8.650;2022-09-16T05:31:08;4.43;;;2.60;;
4422;SDS011;2224;49.814;8.650;2022-09-16T05:33:34;5.30;;;2.70;;
4422;SDS011;2224;49.814;8.650;2022-09-16T05:36:03;5.07;;;3.13;;
4422;SDS011;2224;49.814;8.650;2022-09-16T05:38:32;6.67;;;2.83;;
4422;SDS011;2224;49.814;8.650;2022-09-16T05:40:58;8.67;;;2.70;;
4422;SDS011;2224;49.814;8.650;2022-09-16T05:43:24;4.93;;;2.77;;
4422;SDS011;2224;49.814;8.650;2022-09-16T05:45:50;9.80;;;3.20;;
4422;SDS011;2224;49.814;8.650;2022-09-16T05:48:16;4.23;;;2.67;;
4422;SDS011;2224;49.814;8.650;2022-09-16T05:50:49;8.93;;;3.00;;
4422;SDS011;2224;49.814;8.650;2022-09-16T05:53:18;3.97;;;3.27;;
4422;SDS011;2224;49.814;8.650;2022-09-16T05:55:57;5.03;;;4.10;;
4422;SDS011;2224;49.814;8.650;2022-09-16T05:58:24;8.00;;;3.30;;
4422;SDS011;2224;49.814;8.650;2022-09-16T06:00:50;5.03;;;3.33;;
4422;SDS011;2224;49.814;8.650;2022-09-16T06:03:16;8.90;;;3.30;;
4422;SDS011;2224;49.814;8.650;2022-09-16T06:05:41;6.57;;;3.70;;
4422;SDS011;2224;49.814;8.650;2022-09-16T06:08:06;8.53;;;3.20;;
4422;SDS011;2224;49.814;8.650;2022-09-16T06:10:35;4.93;;;3.30;;
4422;SDS011;2224;49.814;8.650;2022-09-16T06:13:04;4.30;;;3.20;;
4422;SDS011;2224;49.814;8.650;2022-09-16T06:15:29;6.03;;;3.63;;
4422;SDS011;2224;49.814;8.650;2022-09-16T06:17:55;5.23;;;3.90;;
4422;SDS011;2224;49.814;8.650;2022-09-16T06:20:20;4.77;;;3.33;;
4422;SDS011;2224;49.814;8.650;2022-09-16T06:22:46;4.43;;;3.40;;
4422;SDS011;2224;49.814;8.650;2022-09-16T06:25:11;13.13;;;3.53;;
4422;SDS011;2224;49.814;8.650;2022-09-16T06:27:36;4.37;;;3.30;;
4422;SDS011;2224;49.814;8.650;2022-09-16T06:30:02;6.50;;;3.07;;
4422;SDS011;2224;49.814;8.650;2022-09-16T06:32:31;9.77;;;3.87;;
4422;SDS011;2224;49.814;8.650;2022-09-16T06:34:56;5.03;;;3.30;;
4422;SDS011;2224;49.814;8.650;2022-09-16T06:37:21;5.43;;;3.53;;
4422;SDS011;2224;49.814;8.650;2022-09-16T06:39:47;6.07;;;3.40;;
4422;SDS011;2224;49.814;8.650;2022-09-16T06:42:12;4.70;;;3.33;;
4422;SDS011;2224;49.814;8.650;2022-09-16T06:44:38;7.73;;;3.50;;
4422;SDS011;2224;49.814;8.650;2022-09-16T06:47:03;5.50;;;3.50;;
4422;SDS011;2224;49.814;8.650;2022-09-16T06:49:28;5.50;;;3.07;;
4422;SDS011;2224;49.814;8.650;2022-09-16T06:51:54;4.70;;;3.20;;
4422;SDS011;2224;49.814;8.650;2022-09-16T06:54:19;10.70;;;3.60;;
4422;SDS011;2224;49.814;8.650;2022-09-16T06:56:44;6.20;;;3.77;;
4422;SDS011;2224;49.814;8.650;2022-09-16T06:59:09;4.43;;;2.83;;
4422;SDS011;2224;49.814;8.650;2022-09-16T07:01:38;4.53;;;3.10;;
4422;SDS011;2224;49.814;8.650;2022-09-16T07:04:05;4.40;;;3.20;;
4422;SDS011;2224;49.814;8.650;2022-09-16T07:06:34;5.00;;;2.83;;
4422;SDS011;2224;49.814;8.650;2022-09-16T07:08:59;4.37;;;2.60;;
4422;SDS011;2224;49.814;8.650;2022-09-16T07:11:25;7.97;;;3.07;;
4422;SDS011;2224;49.814;8.650;2022-09-16T07:13:50;3.80;;;2.03;;
4422;SDS011;2224;49.814;8.650;2022-09-16T07:16:20;4.80;;;2.33;;
4422;SDS011;2224;49.814;8.650;2022-09-16T07:18:46;5.37;;;2.47;;
4422;SDS011;2224;49.814;8.650;2022-09-16T07:21:16;5.37;;;2.97;;
4422;SDS011;2224;49.814;8.650;2022-09-16T07:23:43;6.47;;;2.00;;
4422;SDS011;2224;49.814;8.650;2022-09-16T07:26:13;4.17;;;1.80;;
4422;SDS011;2224;49.814;8.650;2022-09-16T07:28:40;5.27;;;2.20;;
4422;SDS011;2224;49.814;8.650;2022-09-16T07:31:07;3.27;;;1.97;;
4422;SDS011;2224;49.814;8.650;2022-09-16T07:33:35;4.13;;;2.23;;
4422;SDS011;2224;49.814;8.650;2022-09-16T07:36:05;3.73;;;2.40;;
4422;SDS011;2224;49.814;8.650;2022-09-16T07:38:32;9.27;;;2.53;;
4422;SDS011;2224;49.814;8.650;2022-09-16T07:43:30;7.70;;;2.63;;
4422;SDS011;2224;49.814;8.650;2022-09-16T07:45:56;5.47;;;2.10;;
4422;SDS011;2224;49.814;8.650;2022-09-16T07:48:22;5.30;;;3.20;;
4422;SDS011;2224;49.814;8.650;2022-09-16T07:51:21;3.07;;;2.30;;
4422;SDS011;2224;49.814;8.650;2022-09-16T07:53:43;5.33;;;2.17;;
4422;SDS011;2224;49.814;8.650;2022-09-16T07:56:10;4.00;;;2.20;;
4422;SDS011;2224;49.814;8.650;2022-09-16T07:58:38;3.43;;;2.00;;
4422;SDS011;2224;49.814;8.650;2022-09-16T08:01:04;5.63;;;2.97;;
4422;SDS011;2224;49.814;8.650;2022-09-16T08:03:32;3.20;;;2.10;;
4422;SDS011;2224;49.814;8.650;2022-09-16T08:05:59;4.93;;;2.23;;
4422;SDS011;2224;49.814;8.650;2022-09-16T08:08:25;4.73;;;2.03;;
4422;SDS011;2224;49.814;8.650;2022-09-16T08:10:52;5.43;;;1.80;;
4422;SDS011;2224;49.814;8.650;2022-09-16T08:13:18;4.70;;;1.97;;
4422;SDS011;2224;49.814;8.650;2022-09-16T08:15:44;5.43;;;2.43;;
4422;SDS011;2224;49.814;8.650;2022-09-16T08:18:09;3.87;;;2.07;;
4422;SDS011;2224;49.814;8.650;2022-09-16T08:20:35;4.90;;;2.03;;
4422;SDS011;2224;49.814;8.650;2022-09-16T08:23:01;4.73;;;1.97;;
4422;SDS011;2224;49.814;8.650;2022-09-16T08:25:26;3.37;;;1.87;;
4422;SDS011;2224;49.814;8.650;2022-09-16T08:27:51;9.63;;;2.87;;
4422;SDS011;2224;49.814;8.650;2022-09-16T08:30:17;5.53;;;2.63;;
4422;SDS011;2224;49.814;8.650;2022-09-16T08:32:42;5.33;;;2.20;;
4422;SDS011;2224;49.814;8.650;2022-09-16T08:35:07;3.43;;;2.30;;
4422;SDS011;2224;49.814;8.650;2022-09-16T08:37:33;7.33;;;2.60;;
4422;SDS011;2224;49.814;8.650;2022-09-16T08:39:58;3.73;;;2.20;;
4422;SDS011;2224;49.814;8.650;2022-09-16T08:45:16;3.20;;;1.87;;
4422;SDS011;2224;49.814;8.650;2022-09-16T08:50:16;2.43;;;1.83;;
4422;SDS011;2224;49.814;8.650;2022-09-16T08:52:43;6.00;;;2.27;;
4422;SDS011;2224;49.814;8.650;2022-09-16T08:55:10;6.13;;;1.93;;
4422;SDS011;2224;49.814;8.650;2022-09-16T08:57:40;3.97;;;2.00;;
4422;SDS011;2224;49.814;8.650;2022-09-16T09:00:18;4.33;;;2.17;;
4422;SDS011;2224;49.814;8.650;2022-09-16T09:02:54;5.60;;;1.80;;
4422;SDS011;2224;49.814;8.650;2022-09-16T09:05:34;5.17;;;2.00;;
4422;SDS011;2224;49.814;8.650;2022-09-16T09:10:54;2.17;;;1.43;;
4422;SDS011;2224;49.814;8.650;2022-09-16T09:16:34;4.83;;;2.13;;
4422;SDS011;2224;49.814;8.650;2022-09-16T09:19:23;4.90;;;1.87;;
4422;SDS011;2224;49.814;8.650;2022-09-16T09:27:38;1.70;;;1.60;;
4422;SDS011;2224;49.814;8.650;2022-09-16T09:30:27;2.67;;;1.60;;
4422;SDS011;2224;49.814;8.650;2022-09-16T09:44:28;4.13;;;1.33;;
4422;SDS011;2224;49.814;8.650;2022-09-16T09:47:01;2.10;;;1.47;;
4422;SDS011;2224;49.814;8.650;2022-09-16T09:49:33;2.07;;;1.40;;
4422;SDS011;2224;49.814;8.650;2022-09-16T09:52:15;3.30;;;1.73;;
4422;SDS011;2224;49.814;8.650;2022-09-16T09:54:45;2.70;;;1.30;;
4422;SDS011;2224;49.814;8.650;2022-09-16T09:59:57;4.60;;;1.67;;
4422;SDS011;2224;49.814;8.650;2022-09-16T10:02:25;1.60;;;1.40;;
4422;SDS011;2224;49.814;8.650;2022-09-16T10:04:50;3.10;;;2.30;;
4422;SDS011;2224;49.814;8.650;2022-09-16T10:07:20;3.27;;;1.50;;
4422;SDS011;2224;49.814;8.650;2022-09-16T10:10:30;2.23;;;1.50;;
4422;SDS011;2224;49.814;8.650;2022-09-16T10:12:37;3.93;;;1.73;;
4422;SDS011;2224;49.814;8.650;2022-09-16T10:15:03;2.90;;;1.50;;
4422;SDS011;2224;49.814;8.650;2022-09-16T10:17:30;2.37;;;1.60;;
4422;SDS011;2224;49.814;8.650;2022-09-16T10:22:26;4.67;;;2.30;;
4422;SDS011;2224;49.814;8.650;2022-09-16T10:24:57;2.17;;;1.57;;
4422;SDS011;2224;49.814;8.650;2022-09-16T10:27:34;3.03;;;1.87;;
4422;SDS011;2224;49.814;8.650;2022-09-16T10:32:50;7.97;;;2.00;;
4422;SDS011;2224;49.814;8.650;2022-09-16T10:35:24;5.10;;;1.97;;
4422;SDS011;2224;49.814;8.650;2022-09-16T10:37:52;6.33;;;1.50;;
4422;SDS011;2224;49.814;8.650;2022-09-16T10:40:19;6.30;;;1.33;;
4422;SDS011;2224;49.814;8.650;2022-09-16T10:42:47;4.40;;;1.40;;
4422;SDS011;2224;49.814;8.650;2022-09-16T10:45:14;2.03;;;1.30;;
4422;SDS011;2224;49.814;8.650;2022-09-16T10:47:46;3.93;;;1.10;;
4422;SDS011;2224;49.814;8.650;2022-09-16T10:50:18;3.13;;;1.17;;
4422;SDS011;2224;49.814;8.650;2022-09-16T10:52:44;3.10;;;1.10;;
4422;SDS011;2224;49.814;8.650;2022-09-16T10:55:19;2.67;;;1.10;;
4422;SDS011;2224;49.814;8.650;2022-09-16T10:57:46;1.60;;;1.10;;
4422;SDS011;2224;49.814;8.650;2022-09-16T11:00:13;2.30;;;1.20;;
4422;SDS011;2224;49.814;8.650;2022-09-16T11:05:37;6.77;;;1.20;;
4422;SDS011;2224;49.814;8.650;2022-09-16T11:17:14;1.40;;;1.00;;
4422;SDS011;2224;49.814;8.650;2022-09-16T11:20:04;2.57;;;1.20;;
4422;SDS011;2224;49.814;8.650;2022-09-16T11:30:36;1.60;;;1.20;;
4422;SDS011;2224;49.814;8.650;2022-09-16T11:36:10;2.77;;;1.23;;
4422;SDS011;2224;49.814;8.650;2022-09-16T11:38:55;4.40;;;1.20;;
4422;SDS011;2224;49.814;8.650;2022-09-16T11:44:25;3.23;;;1.30;;
4422;SDS011;2224;49.814;8.650;2022-09-16T11:55:47;2.57;;;1.17;;
4422;SDS011;2224;49.814;8.650;2022-09-16T12:06:48;2.60;;;1.00;;
4422;SDS011;2224;49.814;8.650;2022-09-16T12:09:38;2.60;;;1.30;;
4422;SDS011;2224;49.814;8.650;2022-09-16T12:12:10;4.20;;;1.23;;
4422;SDS011;2224;49.814;8.650;2022-09-16T12:14:43;2.50;;;1.20;;
4422;SDS011;2224;49.814;8.650;2022-09-16T12:17:19;2.30;;;1.10;;
4422;SDS011;2224;49.814;8.650;2022-09-16T12:19:48;2.73;;;1.10;;
4422;SDS011;2224;49.814;8.650;2022-09-16T12:22:21;3.10;;;1.20;;
4422;SDS011;2224;49.814;8.650;2022-09-16T12:25:07;1.70;;;0.97;;
4422;SDS011;2224;49.814;8.650;2022-09-16T12:30:45;1.83;;;1.40;;
4422;SDS011;2224;49.814;8.650;2022-09-16T12:33:15;3.30;;;1.90;;
4422;SDS011;2224;49.814;8.650;2022-09-16T12:36:01;2.40;;;1.37;;
4422;SDS011;2224;49.814;8.650;2022-09-16T12:38:29;1.80;;;1.23;;
4422;SDS011;2224;49.814;8.650;2022-09-16T13:00:31;2.17;;;1.20;;
4422;SDS011;2224;49.814;8.650;2022-09-16T13:03:08;1.63;;;0.90;;
4422;SDS011;2224;49.814;8.650;2022-09-16T13:05:37;0.83;;;0.80;;
4422;SDS011;2224;49.814;8.650;2022-09-16T13:08:04;1.73;;;1.00;;
4422;SDS011;2224;49.814;8.650;2022-09-16T13:10:33;1.20;;;0.90;;
4422;SDS011;2224;49.814;8.650;2022-09-16T13:13:01;3.23;;;1.20;;
4422;SDS011;2224;49.814;8.650;2022-09-16T13:15:31;4.83;;;1.27;;
4422;SDS011;2224;49.814;8.650;2022-09-16T13:18:08;2.20;;;1.10;;
4422;SDS011;2224;49.814;8.650;2022-09-16T13:23:32;1.03;;;0.93;;
4422;SDS011;2224;49.814;8.650;2022-09-16T13:26:00;2.33;;;0.93;;
4422;SDS011;2224;49.814;8.650;2022-09-16T13:33:37;2.50;;;1.03;;
4422;SDS011;2224;49.814;8.650;2022-09-16T13:38:47;2.10;;;1.13;;
4422;SDS011;2224;49.814;8.650;2022-09-16T13:41:27;3.90;;;1.07;;
4422;SDS011;2224;49.814;8.650;2022-09-16T13:43:56;3.50;;;1.27;;
4422;SDS011;2224;49.814;8.650;2022-09-16T13:46:37;1.37;;;1.00;;
4422;SDS011;2224;49.814;8.650;2022-09-16T13:51:32;2.23;;;1.10;;
4422;SDS011;2224;49.814;8.650;2022-09-16T13:53:59;3.90;;;1.20;;
4422;SDS011;2224;49.814;8.650;2022-09-16T13:59:10;2.40;;;1.20;;
4422;SDS011;2224;49.814;8.650;2022-09-16T14:01:44;2.23;;;1.20;;
4422;SDS011;2224;49.814;8.650;2022-09-16T14:12:22;2.63;;;1.30;;
4422;SDS011;2224;49.814;8.650;2022-09-16T14:14:51;1.70;;;1.30;;
4422;SDS011;2224;49.814;8.650;2022-09-16T14:17:18;2.10;;;1.53;;
4422;SDS011;2224;49.814;8.650;2022-09-16T14:19:46;0.87;;;0.73;;
4422;SDS011;2224;49.814;8.650;2022-09-16T14:22:17;2.53;;;0.90;;
4422;SDS011;2224;49.814;8.650;2022-09-16T14:24:45;1.47;;;0.90;;
4422;SDS011;2224;49.814;8.650;2022-09-16T14:27:21;1.70;;;0.73;;
4422;SDS011;2224;49.814;8.650;2022-09-16T14:30:05;4.17;;;0.93;;
4422;SDS011;2224;49.814;8.650;2022-09-16T14:32:41;2.30;;;0.83;;
4422;SDS011;2224;49.814;8.650;2022-09-16T14:35:11;2.10;;;0.63;;
4422;SDS011;2224;49.814;8.650;2022-09-16T14:37:43;1.67;;;0.60;;
4422;SDS011;2224;49.814;8.650;2022-09-16T14:40:11;0.90;;;0.60;;
4422;SDS011;2224;49.814;8.650;2022-09-16T14:42:38;0.77;;;0.60;;
4422;SDS011;2224;49.814;8.650;2022-09-16T14:45:16;2.40;;;0.53;;
4422;SDS011;2224;49.814;8.650;2022-09-16T14:47:41;0.93;;;0.70;;
4422;SDS011;2224;49.814;8.650;2022-09-16T14:50:25;1.40;;;0.63;;
4422;SDS011;2224;49.814;8.650;2022-09-16T14:53:02;0.73;;;0.67;;
4422;SDS011;2224;49.814;8.650;2022-09-16T14:55:30;0.90;;;0.60;;
4422;SDS011;2224;49.814;8.650;2022-09-16T14:57:57;1.63;;;0.60;;
4422;SDS011;2224;49.814;8.650;2022-09-16T15:00:24;1.67;;;1.00;;
4422;SDS011;2224;49.814;8.650;2022-09-16T15:03:12;2.17;;;0.70;;
4422;SDS011;2224;49.814;8.650;2022-09-16T15:05:40;0.80;;;0.80;;
4422;SDS011;2224;49.814;8.650;2022-09-16T15:10:46;1.27;;;1.10;;
4422;SDS011;2224;49.814;8.650;2022-09-16T15:13:13;1.80;;;1.17;;
4422;SDS011;2224;49.814;8.650;2022-09-16T15:15:50;3.03;;;1.10;;
4422;SDS011;2224;49.814;8.650;2022-09-16T15:18:22;1.37;;;1.10;;
4422;SDS011;2224;49.814;8.650;2022-09-16T15:20:56;2.33;;;1.47;;
4422;SDS011;2224;49.814;8.650;2022-09-16T15:23:25;2.00;;;1.20;;
4422;SDS011;2224;49.814;8.650;2022-09-16T15:25:52;1.73;;;0.90;;
4422;SDS011;2224;49.814;8.650;2022-09-16T15:28:20;1.67;;;1.00;;
4422;SDS011;2224;49.814;8.650;2022-09-16T15:30:46;1.67;;;1.00;;
4422;SDS011;2224;49.814;8.650;2022-09-16T15:33:33;1.30;;;1.10;;
4422;SDS011;2224;49.814;8.650;2022-09-16T15:36:00;2.20;;;1.03;;
4422;SDS011;2224;49.814;8.650;2022-09-16T15:38:27;1.00;;;0.90;;
4422;SDS011;2224;49.814;8.650;2022-09-16T15:41:02;2.83;;;1.37;;
4422;SDS011;2224;49.814;8.650;2022-09-16T15:43:29;1.67;;;0.93;;
4422;SDS011;2224;49.814;8.650;2022-09-16T15:46:00;1.20;;;0.80;;
4422;SDS011;2224;49.814;8.650;2022-09-16T15:48:29;1.70;;;0.93;;
4422;SDS011;2224;49.814;8.650;2022-09-16T15:50:58;0.90;;;0.73;;
4422;SDS011;2224;49.814;8.650;2022-09-16T16:04:01;6.50;;;2.23;;
4422;SDS011;2224;49.814;8.650;2022-09-16T16:11:52;4.40;;;1.00;;
4422;SDS011;2224;49.814;8.650;2022-09-16T16:14:29;2.40;;;0.80;;
4422;SDS011;2224;49.814;8.650;2022-09-16T16:16:56;1.20;;;1.00;;
4422;SDS011;2224;49.814;8.650;2022-09-16T16:19:24;0.97;;;0.63;;
4422;SDS011;2224;49.814;8.650;2022-09-16T16:21:50;2.50;;;1.20;;
4422;SDS011;2224;49.814;8.650;2022-09-16T16:24:15;0.97;;;0.60;;
4422;SDS011;2224;49.814;8.650;2022-09-16T16:26:41;2.27;;;1.40;;
4422;SDS011;2224;49.814;8.650;2022-09-16T16:29:07;5.10;;;1.20;;
4422;SDS011;2224;49.814;8.650;2022-09-16T16:31:32;3.03;;;1.17;;
4422;SDS011;2224;49.814;8.650;2022-09-16T16:33:58;1.30;;;0.90;;
4422;SDS011;2224;49.814;8.650;2022-09-16T16:36:24;1.67;;;1.53;;
4422;SDS011;2224;49.814;8.650;2022-09-16T16:38:49;1.83;;;0.83;;
4422;SDS011;2224;49.814;8.650;2022-09-16T16:41:19;1.93;;;0.70;;
4422;SDS011;2224;49.814;8.650;2022-09-16T16:43:45;0.80;;;0.60;;
4422;SDS011;2224;49.814;8.650;2022-09-16T16:46:10;1.40;;;0.80;;
4422;SDS011;2224;49.814;8.650;2022-09-16T16:48:35;1.20;;;0.70;;
4422;SDS011;2224;49.814;8.650;2022-09-16T16:51:02;2.20;;;0.90;;
4422;SDS011;2224;49.814;8.650;2022-09-16T16:53:29;0.90;;;0.73;;
4422;SDS011;2224;49.814;8.650;2022-09-16T16:56:07;1.53;;;0.77;;
4422;SDS011;2224;49.814;8.650;2022-09-16T16:58:34;1.07;;;0.87;;
4422;SDS011;2224;49.814;8.650;2022-09-16T17:01:13;3.40;;;0.93;;
4422;SDS011;2224;49.814;8.650;2022-09-16T17:03:40;1.80;;;0.80;;
4422;SDS011;2224;49.814;8.650;2022-09-16T17:06:07;1.07;;;0.70;;
4422;SDS011;2224;49.814;8.650;2022-09-16T17:08:33;1.03;;;0.80;;
4422;SDS011;2224;49.814;8.650;2022-09-16T17:11:06;1.40;;;0.80;;
4422;SDS011;2224;49.814;8.650;2022-09-16T17:13:32;1.47;;;0.80;;
4422;SDS011;2224;49.814;8.650;2022-09-16T17:15:57;1.13;;;0.90;;
4422;SDS011;2224;49.814;8.650;2022-09-16T17:18:22;1.00;;;0.80;;
4422;SDS011;2224;49.814;8.650;2022-09-16T17:20:48;2.90;;;0.80;;
4422;SDS011;2224;49.814;8.650;2022-09-16T17:23:13;1.73;;;1.00;;
4422;SDS011;2224;49.814;8.650;2022-09-16T17:25:39;0.93;;;0.70;;
4422;SDS011;2224;49.814;8.650;2022-09-16T17:28:04;0.80;;;0.60;;
4422;SDS011;2224;49.814;8.650;2022-09-16T17:30:29;6.23;;;1.03;;
4422;SDS011;2224;49.814;8.650;2022-09-16T17:32:55;4.43;;;1.43;;
4422;SDS011;2224;49.814;8.650;2022-09-16T17:35:20;1.20;;;0.90;;
4422;SDS011;2224;49.814;8.650;2022-09-16T17:37:45;1.30;;;1.20;;
4422;SDS011;2224;49.814;8.650;2022-09-16T17:40:10;1.47;;;0.80;;
4422;SDS011;2224;49.814;8.650;2022-09-16T17:42:36;1.93;;;1.20;;
4422;SDS011;2224;49.814;8.650;2022-09-16T17:45:01;2.27;;;1.07;;
4422;SDS011;2224;49.814;8.650;2022-09-16T17:47:30;1.90;;;1.00;;
4422;SDS011;2224;49.814;8.650;2022-09-16T17:49:56;1.23;;;1.00;;
4422;SDS011;2224;49.814;8.650;2022-09-16T17:52:23;2.40;;;1.30;;
4422;SDS011;2224;49.814;8.650;2022-09-16T17:54:49;2.63;;;1.23;;
4422;SDS011;2224;49.814;8.650;2022-09-16T17:57:14;1.83;;;1.20;;
4422;SDS011;2224;49.814;8.650;2022-09-16T17:59:39;1.30;;;1.00;;
4422;SDS011;2224;49.814;8.650;2022-09-16T18:02:05;2.50;;;1.30;;
4422;SDS011;2224;49.814;8.650;2022-09-16T18:04:33;1.60;;;1.20;;
4422;SDS011;2224;49.814;8.650;2022-09-16T18:06:58;2.23;;;1.20;;
4422;SDS011;2224;49.814;8.650;2022-09-16T18:09:23;1.87;;;1.00;;
4422;SDS011;2224;49.814;8.650;2022-09-16T18:11:49;1.90;;;1.10;;
4422;SDS011;2224;49.814;8.650;2022-09-16T18:14:14;2.10;;;1.30;;
4422;SDS011;2224;49.814;8.650;2022-09-16T18:16:39;2.43;;;1.20;;
4422;SDS011;2224;49.814;8.650;2022-09-16T18:19:05;1.13;;;0.93;;
4422;SDS011;2224;49.814;8.650;2022-09-16T18:21:31;1.03;;;0.80;;
4422;SDS011;2224;49.814;8.650;2022-09-16T18:23:58;1.17;;;0.97;;
4422;SDS011;2224;49.814;8.650;2022-09-16T18:26:24;2.00;;;1.50;;
4422;SDS011;2224;49.814;8.650;2022-09-16T18:28:51;1.60;;;1.30;;
4422;SDS011;2224;49.814;8.650;2022-09-16T18:31:18;2.13;;;1.40;;
4422;SDS011;2224;49.814;8.650;2022-09-16T18:33:44;2.03;;;1.00;;
4422;SDS011;2224;49.814;8.650;2022-09-16T18:36:11;1.13;;;1.03;;
4422;SDS011;2224;49.814;8.650;2022-09-16T18:38:38;2.97;;;1.53;;